sensor_id;sensor_type;location;lat;lon;timestamp;P1;durP1;ratioP1;P2;durP2;ratioP2
7495;SDS011;3789;47.064;15.482;2023-03-03T00:00:49;23.87;;;16.60;;
7495;SDS011;3789;47.064;15.482;2023-03-03T00:03:18;24.47;;;17.23;;
7495;SDS011;3789;47.064;15.482;2023-03-03T00:05:48;32.20;;;22.83;;
7495;SDS011;3789;47.064;15.482;2023-03-03T00:08:17;35.43;;;25.17;;
7495;SDS011;3789;47.064;15.482;2023-03-03T00:10:45;33.63;;;20.90;;
7495;SDS011;3789;47.064;15.482;2023-03-03T00:13:17;23.33;;;17.50;;
7495;SDS011;3789;47.064;15.482;2023-03-03T00:15:47;23.40;;;16.37;;
7495;SDS011;3789;47.064;15.482;2023-03-03T00:18:34;19.57;;;15.00;;
7495;SDS011;3789;47.064;15.482;2023-03-03T00:21:03;19.50;;;14.57;;
7495;SDS011;3789;47.064;15.482;2023-03-03T00:23:48;19.63;;;13.97;;
7495;SDS011;3789;47.064;15.482;2023-03-03T00:26:33;22.03;;;14.13;;
7495;SDS011;3789;47.064;15.482;2023-03-03T00:29:18;21.03;;;14.77;;
7495;SDS011;3789;47.064;15.482;2023-03-03T00:31:52;20.13;;;13.67;;
7495;SDS011;3789;47.064;15.482;2023-03-03T00:34:24;23.03;;;14.67;;
7495;SDS011;3789;47.064;15.482;2023-03-03T00:36:54;19.80;;;14.33;;
7495;SDS011;3789;47.064;15.482;2023-03-03T00:39:35;23.67;;;16.20;;
7495;SDS011;3789;47.064;15.482;2023-03-03T00:42:12;21.23;;;15.87;;
7495;SDS011;3789;47.064;15.482;2023-03-03T00:44:47;27.90;;;17.43;;
7495;SDS011;3789;47.064;15.482;2023-03-03T00:47:28;25.00;;;16.60;;
7495;SDS011;3789;47.064;15.482;2023-03-03T00:52:38;26.87;;;17.20;;
7495;SDS011;3789;47.064;15.482;2023-03-03T00:55:10;25.83;;;16.83;;
7495;SDS011;3789;47.064;15.482;2023-03-03T00:57:37;25.87;;;16.60;;
7495;SDS011;3789;47.064;15.482;2023-03-03T01:00:05;25.97;;;16.60;;
7495;SDS011;3789;47.064;15.482;2023-03-03T01:02:33;24.13;;;15.83;;
7495;SDS011;3789;47.064;15.482;2023-03-03T01:08:48;23.83;;;15.27;;
7495;SDS011;3789;47.064;15.482;2023-03-03T01:11:16;28.07;;;15.53;;
7495;SDS011;3789;47.064;15.482;2023-03-03T01:13:49;20.90;;;15.00;;
7495;SDS011;3789;47.064;15.482;2023-03-03T01:16:17;21.57;;;15.43;;
7495;SDS011;3789;47.064;15.482;2023-03-03T01:18:45;22.03;;;15.17;;
7495;SDS011;3789;47.064;15.482;2023-03-03T01:21:13;21.10;;;14.63;;
7495;SDS011;3789;47.064;15.482;2023-03-03T01:23:40;25.77;;;15.73;;
7495;SDS011;3789;47.064;15.482;2023-03-03T01:26:08;20.47;;;12.70;;
7495;SDS011;3789;47.064;15.482;2023-03-03T01:28:35;22.80;;;17.13;;
7495;SDS011;3789;47.064;15.482;2023-03-03T01:31:03;23.07;;;14.97;;
7495;SDS011;3789;47.064;15.482;2023-03-03T01:33:32;23.43;;;16.63;;
7495;SDS011;3789;47.064;15.482;2023-03-03T01:36:01;26.33;;;17.40;;
7495;SDS011;3789;47.064;15.482;2023-03-03T01:38:29;31.97;;;20.30;;
7495;SDS011;3789;47.064;15.482;2023-03-03T01:40:57;31.17;;;20.03;;
7495;SDS011;3789;47.064;15.482;2023-03-03T01:43:26;34.43;;;22.13;;
7495;SDS011;3789;47.064;15.482;2023-03-03T01:48:39;33.53;;;21.87;;
7495;SDS011;3789;47.064;15.482;2023-03-03T01:51:44;33.00;;;23.10;;
7495;SDS011;3789;47.064;15.482;2023-03-03T01:54:12;36.83;;;24.77;;
7495;SDS011;3789;47.064;15.482;2023-03-03T01:56:47;37.37;;;24.27;;
7495;SDS011;3789;47.064;15.482;2023-03-03T01:59:17;35.27;;;23.40;;
7495;SDS011;3789;47.064;15.482;2023-03-03T02:01:47;41.23;;;27.23;;
7495;SDS011;3789;47.064;15.482;2023-03-03T02:04:16;45.93;;;28.60;;
7495;SDS011;3789;47.064;15.482;2023-03-03T02:06:45;43.63;;;30.50;;
7495;SDS011;3789;47.064;15.482;2023-03-03T02:09:22;42.87;;;29.60;;
7495;SDS011;3789;47.064;15.482;2023-03-03T02:11:56;44.77;;;30.33;;
7495;SDS011;3789;47.064;15.482;2023-03-03T02:14:26;45.57;;;31.30;;
7495;SDS011;3789;47.064;15.482;2023-03-03T02:16:53;47.17;;;29.90;;
7495;SDS011;3789;47.064;15.482;2023-03-03T02:19:24;41.30;;;28.93;;
7495;SDS011;3789;47.064;15.482;2023-03-03T02:22:01;46.13;;;30.20;;
7495;SDS011;3789;47.064;15.482;2023-03-03T02:24:34;33.53;;;25.03;;
7495;SDS011;3789;47.064;15.482;2023-03-03T02:27:22;35.93;;;25.43;;
7495;SDS011;3789;47.064;15.482;2023-03-03T02:29:49;36.00;;;25.27;;
7495;SDS011;3789;47.064;15.482;2023-03-03T02:32:17;44.27;;;28.77;;
7495;SDS011;3789;47.064;15.482;2023-03-03T02:34:48;37.80;;;25.93;;
7495;SDS011;3789;47.064;15.482;2023-03-03T02:37:19;35.00;;;26.13;;
7495;SDS011;3789;47.064;15.482;2023-03-03T02:39:46;39.20;;;27.10;;
7495;SDS011;3789;47.064;15.482;2023-03-03T02:42:15;36.73;;;26.67;;
7495;SDS011;3789;47.064;15.482;2023-03-03T02:44:51;39.80;;;25.57;;
7495;SDS011;3789;47.064;15.482;2023-03-03T02:47:18;37.30;;;26.10;;
7495;SDS011;3789;47.064;15.482;2023-03-03T02:49:45;35.70;;;24.87;;
7495;SDS011;3789;47.064;15.482;2023-03-03T02:52:13;33.80;;;24.23;;
7495;SDS011;3789;47.064;15.482;2023-03-03T02:54:43;36.60;;;25.90;;
7495;SDS011;3789;47.064;15.482;2023-03-03T02:57:10;35.10;;;26.13;;
7495;SDS011;3789;47.064;15.482;2023-03-03T02:59:38;34.77;;;24.43;;
7495;SDS011;3789;47.064;15.482;2023-03-03T03:02:05;32.33;;;24.10;;
7495;SDS011;3789;47.064;15.482;2023-03-03T03:04:34;32.40;;;23.40;;
7495;SDS011;3789;47.064;15.482;2023-03-03T03:07:01;32.47;;;23.97;;
7495;SDS011;3789;47.064;15.482;2023-03-03T03:09:29;29.10;;;22.03;;
7495;SDS011;3789;47.064;15.482;2023-03-03T03:11:56;27.70;;;21.37;;
7495;SDS011;3789;47.064;15.482;2023-03-03T03:14:24;28.00;;;20.83;;
7495;SDS011;3789;47.064;15.482;2023-03-03T03:16:52;27.17;;;18.67;;
7495;SDS011;3789;47.064;15.482;2023-03-03T03:19:19;25.90;;;20.63;;
7495;SDS011;3789;47.064;15.482;2023-03-03T03:21:47;31.50;;;21.60;;
7495;SDS011;3789;47.064;15.482;2023-03-03T03:24:14;25.17;;;19.93;;
7495;SDS011;3789;47.064;15.482;2023-03-03T03:26:41;29.47;;;22.73;;
7495;SDS011;3789;47.064;15.482;2023-03-03T03:29:08;20.50;;;17.93;;
7495;SDS011;3789;47.064;15.482;2023-03-03T03:31:36;29.87;;;20.87;;
7495;SDS011;3789;47.064;15.482;2023-03-03T03:34:04;33.60;;;23.80;;
7495;SDS011;3789;47.064;15.482;2023-03-03T03:36:32;34.63;;;24.40;;
7495;SDS011;3789;47.064;15.482;2023-03-03T03:38:59;32.77;;;21.87;;
7495;SDS011;3789;47.064;15.482;2023-03-03T03:41:28;27.77;;;19.80;;
7495;SDS011;3789;47.064;15.482;2023-03-03T03:43:55;24.40;;;19.07;;
7495;SDS011;3789;47.064;15.482;2023-03-03T03:46:23;23.13;;;18.37;;
7495;SDS011;3789;47.064;15.482;2023-03-03T03:48:50;27.67;;;20.60;;
7495;SDS011;3789;47.064;15.482;2023-03-03T03:51:17;27.57;;;21.33;;
7495;SDS011;3789;47.064;15.482;2023-03-03T03:53:44;27.67;;;20.40;;
7495;SDS011;3789;47.064;15.482;2023-03-03T03:56:11;28.13;;;20.60;;
7495;SDS011;3789;47.064;15.482;2023-03-03T03:58:40;27.37;;;20.80;;
7495;SDS011;3789;47.064;15.482;2023-03-03T04:01:08;25.43;;;20.90;;
7495;SDS011;3789;47.064;15.482;2023-03-03T04:03:35;31.33;;;23.83;;
7495;SDS011;3789;47.064;15.482;2023-03-03T04:06:02;23.93;;;19.93;;
7495;SDS011;3789;47.064;15.482;2023-03-03T04:08:29;26.50;;;19.00;;
7495;SDS011;3789;47.064;15.482;2023-03-03T04:10:56;33.60;;;25.53;;
7495;SDS011;3789;47.064;15.482;2023-03-03T04:13:23;30.03;;;20.97;;
7495;SDS011;3789;47.064;15.482;2023-03-03T04:15:54;31.43;;;22.70;;
7495;SDS011;3789;47.064;15.482;2023-03-03T04:18:21;31.73;;;23.10;;
7495;SDS011;3789;47.064;15.482;2023-03-03T04:20:48;29.87;;;22.47;;
7495;SDS011;3789;47.064;15.482;2023-03-03T04:23:18;30.03;;;21.63;;
7495;SDS011;3789;47.064;15.482;2023-03-03T04:25:46;27.60;;;21.20;;
7495;SDS011;3789;47.064;15.482;2023-03-03T04:28:14;24.83;;;18.53;;
7495;SDS011;3789;47.064;15.482;2023-03-03T04:30:42;30.03;;;22.77;;
7495;SDS011;3789;47.064;15.482;2023-03-03T04:33:10;32.93;;;23.20;;
7495;SDS011;3789;47.064;15.482;2023-03-03T04:35:37;30.17;;;20.83;;
7495;SDS011;3789;47.064;15.482;2023-03-03T04:38:04;22.20;;;17.00;;
7495;SDS011;3789;47.064;15.482;2023-03-03T04:40:32;24.23;;;17.83;;
7495;SDS011;3789;47.064;15.482;2023-03-03T04:42:59;27.97;;;19.20;;
7495;SDS011;3789;47.064;15.482;2023-03-03T04:45:26;25.53;;;19.13;;
7495;SDS011;3789;47.064;15.482;2023-03-03T04:47:53;25.90;;;18.67;;
7495;SDS011;3789;47.064;15.482;2023-03-03T04:50:21;25.53;;;18.30;;
7495;SDS011;3789;47.064;15.482;2023-03-03T04:52:48;22.27;;;17.07;;
7495;SDS011;3789;47.064;15.482;2023-03-03T04:55:15;24.10;;;17.60;;
7495;SDS011;3789;47.064;15.482;2023-03-03T04:57:42;28.13;;;18.17;;
7495;SDS011;3789;47.064;15.482;2023-03-03T05:00:10;21.13;;;14.13;;
7495;SDS011;3789;47.064;15.482;2023-03-03T05:02:39;22.27;;;16.83;;
7495;SDS011;3789;47.064;15.482;2023-03-03T05:05:07;22.87;;;16.73;;
7495;SDS011;3789;47.064;15.482;2023-03-03T05:07:36;25.73;;;18.87;;
7495;SDS011;3789;47.064;15.482;2023-03-03T05:10:03;23.67;;;19.33;;
7495;SDS011;3789;47.064;15.482;2023-03-03T05:12:32;27.60;;;19.13;;
7495;SDS011;3789;47.064;15.482;2023-03-03T05:15:00;26.07;;;18.40;;
7495;SDS011;3789;47.064;15.482;2023-03-03T05:17:27;26.07;;;19.13;;
7495;SDS011;3789;47.064;15.482;2023-03-03T05:19:54;22.07;;;17.00;;
7495;SDS011;3789;47.064;15.482;2023-03-03T05:22:23;21.87;;;16.67;;
7495;SDS011;3789;47.064;15.482;2023-03-03T05:24:50;23.53;;;17.47;;
7495;SDS011;3789;47.064;15.482;2023-03-03T05:27:18;26.83;;;19.20;;
7495;SDS011;3789;47.064;15.482;2023-03-03T05:29:45;25.57;;;17.50;;
7495;SDS011;3789;47.064;15.482;2023-03-03T05:32:13;25.37;;;18.63;;
7495;SDS011;3789;47.064;15.482;2023-03-03T05:34:40;23.43;;;16.60;;
7495;SDS011;3789;47.064;15.482;2023-03-03T05:37:07;22.17;;;16.23;;
7495;SDS011;3789;47.064;15.482;2023-03-03T05:39:34;22.10;;;17.00;;
7495;SDS011;3789;47.064;15.482;2023-03-03T05:42:02;22.13;;;18.07;;
7495;SDS011;3789;47.064;15.482;2023-03-03T05:44:29;23.87;;;17.13;;
7495;SDS011;3789;47.064;15.482;2023-03-03T05:46:57;23.83;;;17.00;;
7495;SDS011;3789;47.064;15.482;2023-03-03T05:49:24;22.60;;;18.20;;
7495;SDS011;3789;47.064;15.482;2023-03-03T05:51:52;24.83;;;18.10;;
7495;SDS011;3789;47.064;15.482;2023-03-03T05:54:19;23.87;;;17.67;;
7495;SDS011;3789;47.064;15.482;2023-03-03T05:56:46;24.43;;;18.27;;
7495;SDS011;3789;47.064;15.482;2023-03-03T05:59:14;25.10;;;18.47;;
7495;SDS011;3789;47.064;15.482;2023-03-03T06:01:41;25.17;;;19.20;;
7495;SDS011;3789;47.064;15.482;2023-03-03T06:04:08;26.23;;;18.67;;
7495;SDS011;3789;47.064;15.482;2023-03-03T06:06:36;24.67;;;18.80;;
7495;SDS011;3789;47.064;15.482;2023-03-03T06:09:04;22.83;;;17.30;;
7495;SDS011;3789;47.064;15.482;2023-03-03T06:11:31;20.20;;;16.90;;
7495;SDS011;3789;47.064;15.482;2023-03-03T06:13:59;23.20;;;17.47;;
7495;SDS011;3789;47.064;15.482;2023-03-03T06:16:26;22.80;;;18.40;;
7495;SDS011;3789;47.064;15.482;2023-03-03T06:18:53;22.10;;;16.43;;
7495;SDS011;3789;47.064;15.482;2023-03-03T06:21:21;22.80;;;17.10;;
7495;SDS011;3789;47.064;15.482;2023-03-03T06:23:48;23.53;;;17.90;;
7495;SDS011;3789;47.064;15.482;2023-03-03T06:26:15;24.23;;;18.30;;
7495;SDS011;3789;47.064;15.482;2023-03-03T06:28:43;23.93;;;17.90;;
7495;SDS011;3789;47.064;15.482;2023-03-03T06:31:10;21.57;;;17.60;;
7495;SDS011;3789;47.064;15.482;2023-03-03T06:33:37;27.00;;;18.40;;
7495;SDS011;3789;47.064;15.482;2023-03-03T06:36:04;24.60;;;18.07;;
7495;SDS011;3789;47.064;15.482;2023-03-03T06:38:32;21.17;;;16.30;;
7495;SDS011;3789;47.064;15.482;2023-03-03T06:40:59;22.67;;;16.83;;
7495;SDS011;3789;47.064;15.482;2023-03-03T06:43:29;21.50;;;18.07;;
7495;SDS011;3789;47.064;15.482;2023-03-03T06:45:56;23.00;;;17.83;;
7495;SDS011;3789;47.064;15.482;2023-03-03T06:48:23;24.93;;;17.37;;
7495;SDS011;3789;47.064;15.482;2023-03-03T06:50:51;20.23;;;16.53;;
7495;SDS011;3789;47.064;15.482;2023-03-03T06:53:18;20.37;;;16.83;;
7495;SDS011;3789;47.064;15.482;2023-03-03T06:55:45;23.27;;;17.27;;
7495;SDS011;3789;47.064;15.482;2023-03-03T06:58:14;23.07;;;16.80;;
7495;SDS011;3789;47.064;15.482;2023-03-03T07:00:53;20.37;;;16.77;;
7495;SDS011;3789;47.064;15.482;2023-03-03T07:03:25;25.37;;;17.73;;
7495;SDS011;3789;47.064;15.482;2023-03-03T07:05:59;20.37;;;16.37;;
7495;SDS011;3789;47.064;15.482;2023-03-03T07:08:31;20.27;;;16.07;;
7495;SDS011;3789;47.064;15.482;2023-03-03T07:11:00;20.17;;;16.60;;
7495;SDS011;3789;47.064;15.482;2023-03-03T07:13:33;26.50;;;20.57;;
7495;SDS011;3789;47.064;15.482;2023-03-03T07:16:08;21.60;;;17.00;;
7495;SDS011;3789;47.064;15.482;2023-03-03T07:18:49;19.87;;;16.77;;
7495;SDS011;3789;47.064;15.482;2023-03-03T07:21:22;20.10;;;16.33;;
7495;SDS011;3789;47.064;15.482;2023-03-03T07:23:57;20.83;;;14.80;;
7495;SDS011;3789;47.064;15.482;2023-03-03T07:26:30;19.97;;;15.83;;
7495;SDS011;3789;47.064;15.482;2023-03-03T07:29:03;19.97;;;15.70;;
7495;SDS011;3789;47.064;15.482;2023-03-03T07:31:41;14.87;;;12.30;;
7495;SDS011;3789;47.064;15.482;2023-03-03T07:34:19;15.07;;;12.43;;
7495;SDS011;3789;47.064;15.482;2023-03-03T07:36:52;18.70;;;13.53;;
7495;SDS011;3789;47.064;15.482;2023-03-03T07:42:43;17.10;;;13.17;;
7495;SDS011;3789;47.064;15.482;2023-03-03T07:45:34;18.00;;;13.10;;
7495;SDS011;3789;47.064;15.482;2023-03-03T07:50:39;18.27;;;13.17;;
7495;SDS011;3789;47.064;15.482;2023-03-03T07:53:11;21.73;;;13.40;;
7495;SDS011;3789;47.064;15.482;2023-03-03T07:55:48;17.87;;;13.70;;
7495;SDS011;3789;47.064;15.482;2023-03-03T07:58:49;17.13;;;12.40;;
7495;SDS011;3789;47.064;15.482;2023-03-03T08:03:58;18.23;;;12.20;;
7495;SDS011;3789;47.064;15.482;2023-03-03T08:06:41;19.67;;;13.70;;
7495;SDS011;3789;47.064;15.482;2023-03-03T08:09:35;19.70;;;13.70;;
7495;SDS011;3789;47.064;15.482;2023-03-03T08:14:44;21.07;;;14.37;;
7495;SDS011;3789;47.064;15.482;2023-03-03T08:19:44;17.40;;;13.77;;
7495;SDS011;3789;47.064;15.482;2023-03-03T08:22:17;19.53;;;14.07;;
7495;SDS011;3789;47.064;15.482;2023-03-03T08:24:50;18.47;;;13.40;;
7495;SDS011;3789;47.064;15.482;2023-03-03T08:27:17;19.27;;;13.73;;
7495;SDS011;3789;47.064;15.482;2023-03-03T08:29:44;14.70;;;12.63;;
7495;SDS011;3789;47.064;15.482;2023-03-03T08:32:13;17.30;;;12.57;;
7495;SDS011;3789;47.064;15.482;2023-03-03T08:34:41;16.20;;;12.87;;
7495;SDS011;3789;47.064;15.482;2023-03-03T08:37:08;15.43;;;12.03;;
7495;SDS011;3789;47.064;15.482;2023-03-03T08:39:35;16.80;;;11.97;;
7495;SDS011;3789;47.064;15.482;2023-03-03T08:42:03;18.40;;;13.20;;
7495;SDS011;3789;47.064;15.482;2023-03-03T08:44:30;19.47;;;13.27;;
7495;SDS011;3789;47.064;15.482;2023-03-03T08:46:57;16.13;;;11.03;;
7495;SDS011;3789;47.064;15.482;2023-03-03T08:49:33;14.37;;;10.57;;
7495;SDS011;3789;47.064;15.482;2023-03-03T08:52:00;13.20;;;9.53;;
7495;SDS011;3789;47.064;15.482;2023-03-03T08:54:27;13.83;;;10.93;;
7495;SDS011;3789;47.064;15.482;2023-03-03T08:56:55;14.73;;;11.37;;
7495;SDS011;3789;47.064;15.482;2023-03-03T08:59:22;21.30;;;15.27;;
7495;SDS011;3789;47.064;15.482;2023-03-03T09:01:49;18.17;;;12.43;;
7495;SDS011;3789;47.064;15.482;2023-03-03T09:04:17;22.23;;;16.80;;
7495;SDS011;3789;47.064;15.482;2023-03-03T09:06:45;18.80;;;14.80;;
7495;SDS011;3789;47.064;15.482;2023-03-03T09:09:12;19.67;;;14.30;;
7495;SDS011;3789;47.064;15.482;2023-03-03T09:11:40;17.40;;;13.80;;
7495;SDS011;3789;47.064;15.482;2023-03-03T09:14:13;17.33;;;13.83;;
7495;SDS011;3789;47.064;15.482;2023-03-03T09:16:51;19.23;;;14.80;;
7495;SDS011;3789;47.064;15.482;2023-03-03T09:19:30;17.57;;;13.73;;
7495;SDS011;3789;47.064;15.482;2023-03-03T09:22:10;20.53;;;15.33;;
7495;SDS011;3789;47.064;15.482;2023-03-03T09:24:51;19.03;;;14.67;;
7495;SDS011;3789;47.064;15.482;2023-03-03T09:30:04;18.27;;;13.37;;
7495;SDS011;3789;47.064;15.482;2023-03-03T09:32:52;22.80;;;14.57;;
7495;SDS011;3789;47.064;15.482;2023-03-03T09:37:56;14.97;;;11.67;;
7495;SDS011;3789;47.064;15.482;2023-03-03T09:43:24;17.00;;;13.43;;
7495;SDS011;3789;47.064;15.482;2023-03-03T09:46:08;20.23;;;17.07;;
7495;SDS011;3789;47.064;15.482;2023-03-03T09:54:39;15.93;;;11.83;;
7495;SDS011;3789;47.064;15.482;2023-03-03T09:57:19;11.77;;;10.03;;
7495;SDS011;3789;47.064;15.482;2023-03-03T10:02:54;10.97;;;9.73;;
7495;SDS011;3789;47.064;15.482;2023-03-03T10:05:48;14.90;;;12.10;;
7495;SDS011;3789;47.064;15.482;2023-03-03T10:08:41;11.27;;;9.93;;
7495;SDS011;3789;47.064;15.482;2023-03-03T10:11:30;13.70;;;11.53;;
7495;SDS011;3789;47.064;15.482;2023-03-03T10:15:07;18.57;;;11.80;;
7495;SDS011;3789;47.064;15.482;2023-03-03T10:23:20;9.97;;;8.97;;
7495;SDS011;3789;47.064;15.482;2023-03-03T10:37:15;13.23;;;9.57;;
7495;SDS011;3789;47.064;15.482;2023-03-03T10:43:02;18.87;;;11.20;;
7495;SDS011;3789;47.064;15.482;2023-03-03T10:46:01;14.43;;;10.90;;
7495;SDS011;3789;47.064;15.482;2023-03-03T10:48:45;10.70;;;8.97;;
7495;SDS011;3789;47.064;15.482;2023-03-03T10:56:49;12.90;;;10.33;;
7495;SDS011;3789;47.064;15.482;2023-03-03T11:05:15;13.57;;;11.37;;
7495;SDS011;3789;47.064;15.482;2023-03-03T11:08:22;10.23;;;8.63;;
7495;SDS011;3789;47.064;15.482;2023-03-03T11:13:52;13.97;;;10.67;;
7495;SDS011;3789;47.064;15.482;2023-03-03T11:19:20;14.50;;;11.57;;
7495;SDS011;3789;47.064;15.482;2023-03-03T11:33:14;9.83;;;7.90;;
7495;SDS011;3789;47.064;15.482;2023-03-03T11:38:44;16.50;;;10.50;;
7495;SDS011;3789;47.064;15.482;2023-03-03T11:41:31;12.50;;;11.00;;
7495;SDS011;3789;47.064;15.482;2023-03-03T11:44:12;14.53;;;11.30;;
7495;SDS011;3789;47.064;15.482;2023-03-03T11:47:15;13.77;;;9.83;;
7495;SDS011;3789;47.064;15.482;2023-03-03T11:50:01;9.67;;;7.83;;
7495;SDS011;3789;47.064;15.482;2023-03-03T11:52:57;13.53;;;10.17;;
7495;SDS011;3789;47.064;15.482;2023-03-03T11:55:48;11.20;;;9.17;;
7495;SDS011;3789;47.064;15.482;2023-03-03T11:58:30;15.17;;;11.60;;
7495;SDS011;3789;47.064;15.482;2023-03-03T12:03:47;11.70;;;8.53;;
7495;SDS011;3789;47.064;15.482;2023-03-03T12:12:20;12.00;;;8.73;;
7495;SDS011;3789;47.064;15.482;2023-03-03T12:20:02;12.17;;;8.83;;
7495;SDS011;3789;47.064;15.482;2023-03-03T12:25:56;17.47;;;10.53;;
7495;SDS011;3789;47.064;15.482;2023-03-03T12:29:04;12.70;;;8.90;;
7495;SDS011;3789;47.064;15.482;2023-03-03T12:34:33;12.27;;;9.83;;
7495;SDS011;3789;47.064;15.482;2023-03-03T12:40:25;12.97;;;9.33;;
7495;SDS011;3789;47.064;15.482;2023-03-03T12:46:09;13.37;;;10.77;;
7495;SDS011;3789;47.064;15.482;2023-03-03T12:51:17;10.97;;;8.97;;
7495;SDS011;3789;47.064;15.482;2023-03-03T12:54:12;13.03;;;9.80;;
7495;SDS011;3789;47.064;15.482;2023-03-03T12:56:45;15.67;;;11.50;;
7495;SDS011;3789;47.064;15.482;2023-03-03T13:05:28;13.83;;;11.10;;
7495;SDS011;3789;47.064;15.482;2023-03-03T13:11:04;13.80;;;11.37;;
7495;SDS011;3789;47.064;15.482;2023-03-03T13:13:59;14.90;;;12.00;;
7495;SDS011;3789;47.064;15.482;2023-03-03T13:16:34;13.33;;;10.90;;
7495;SDS011;3789;47.064;15.482;2023-03-03T13:22:05;8.70;;;7.50;;
7495;SDS011;3789;47.064;15.482;2023-03-03T13:25:08;12.20;;;9.30;;
7495;SDS011;3789;47.064;15.482;2023-03-03T13:28:01;13.23;;;10.47;;
7495;SDS011;3789;47.064;15.482;2023-03-03T13:30:46;13.57;;;11.17;;
7495;SDS011;3789;47.064;15.482;2023-03-03T13:33:33;14.60;;;11.87;;
7495;SDS011;3789;47.064;15.482;2023-03-03T13:36:10;13.70;;;10.70;;
7495;SDS011;3789;47.064;15.482;2023-03-03T13:38:40;11.40;;;9.30;;
7495;SDS011;3789;47.064;15.482;2023-03-03T13:44:21;13.27;;;10.47;;
7495;SDS011;3789;47.064;15.482;2023-03-03T13:46:58;14.97;;;10.60;;
7495;SDS011;3789;47.064;15.482;2023-03-03T13:49:44;14.83;;;11.47;;
7495;SDS011;3789;47.064;15.482;2023-03-03T13:52:19;14.83;;;11.33;;
7495;SDS011;3789;47.064;15.482;2023-03-03T14:00:19;9.90;;;8.10;;
7495;SDS011;3789;47.064;15.482;2023-03-03T14:06:18;13.70;;;10.17;;
7495;SDS011;3789;47.064;15.482;2023-03-03T14:11:45;15.67;;;10.47;;
7495;SDS011;3789;47.064;15.482;2023-03-03T14:14:24;14.10;;;10.63;;
7495;SDS011;3789;47.064;15.482;2023-03-03T14:17:31;14.47;;;11.13;;
7495;SDS011;3789;47.064;15.482;2023-03-03T14:23:09;15.57;;;11.73;;
7495;SDS011;3789;47.064;15.482;2023-03-03T14:28:43;11.13;;;9.47;;
7495;SDS011;3789;47.064;15.482;2023-03-03T14:31:25;13.43;;;10.60;;
7495;SDS011;3789;47.064;15.482;2023-03-03T14:33:57;12.17;;;9.23;;
7495;SDS011;3789;47.064;15.482;2023-03-03T14:36:30;13.17;;;9.97;;
7495;SDS011;3789;47.064;15.482;2023-03-03T14:39:00;10.70;;;9.60;;
7495;SDS011;3789;47.064;15.482;2023-03-03T14:41:48;14.70;;;11.43;;
7495;SDS011;3789;47.064;15.482;2023-03-03T14:47:10;11.73;;;9.80;;
7495;SDS011;3789;47.064;15.482;2023-03-03T14:49:45;17.73;;;12.10;;
7495;SDS011;3789;47.064;15.482;2023-03-03T14:54:41;10.23;;;7.80;;
7495;SDS011;3789;47.064;15.482;2023-03-03T15:00:04;16.37;;;11.20;;
7495;SDS011;3789;47.064;15.482;2023-03-03T15:05:47;11.30;;;9.47;;
7495;SDS011;3789;47.064;15.482;2023-03-03T15:08:15;14.23;;;9.63;;
7495;SDS011;3789;47.064;15.482;2023-03-03T15:13:51;14.37;;;11.10;;
7495;SDS011;3789;47.064;15.482;2023-03-03T15:16:22;14.93;;;9.47;;
7495;SDS011;3789;47.064;15.482;2023-03-03T15:21:31;13.23;;;10.47;;
7495;SDS011;3789;47.064;15.482;2023-03-03T15:24:02;17.77;;;11.20;;
7495;SDS011;3789;47.064;15.482;2023-03-03T15:26:54;13.17;;;10.23;;
7495;SDS011;3789;47.064;15.482;2023-03-03T15:30:34;12.43;;;10.13;;
7495;SDS011;3789;47.064;15.482;2023-03-03T15:32:57;14.47;;;10.57;;
7495;SDS011;3789;47.064;15.482;2023-03-03T15:38:54;10.37;;;9.10;;
7495;SDS011;3789;47.064;15.482;2023-03-03T15:44:11;14.90;;;10.87;;
7495;SDS011;3789;47.064;15.482;2023-03-03T15:46:59;14.13;;;10.37;;
7495;SDS011;3789;47.064;15.482;2023-03-03T16:00:33;14.30;;;10.67;;
7495;SDS011;3789;47.064;15.482;2023-03-03T16:03:48;12.90;;;10.10;;
7495;SDS011;3789;47.064;15.482;2023-03-03T16:06:10;10.77;;;9.37;;
7495;SDS011;3789;47.064;15.482;2023-03-03T16:09:02;13.10;;;9.83;;
7495;SDS011;3789;47.064;15.482;2023-03-03T16:11:43;15.03;;;10.13;;
7495;SDS011;3789;47.064;15.482;2023-03-03T16:14:36;12.17;;;10.57;;
7495;SDS011;3789;47.064;15.482;2023-03-03T16:17:29;9.23;;;7.97;;
7495;SDS011;3789;47.064;15.482;2023-03-03T16:25:35;15.37;;;11.00;;
7495;SDS011;3789;47.064;15.482;2023-03-03T16:31:18;13.30;;;10.47;;
7495;SDS011;3789;47.064;15.482;2023-03-03T16:39:50;11.80;;;10.13;;
7495;SDS011;3789;47.064;15.482;2023-03-03T16:47:50;13.73;;;10.40;;
7495;SDS011;3789;47.064;15.482;2023-03-03T16:53:47;16.60;;;11.43;;
7495;SDS011;3789;47.064;15.482;2023-03-03T16:56:38;16.90;;;12.33;;
7495;SDS011;3789;47.064;15.482;2023-03-03T17:13:57;12.80;;;10.40;;
7495;SDS011;3789;47.064;15.482;2023-03-03T17:19:40;18.73;;;12.63;;
7495;SDS011;3789;47.064;15.482;2023-03-03T17:28:45;15.50;;;11.10;;
7495;SDS011;3789;47.064;15.482;2023-03-03T17:43:03;17.30;;;14.40;;
7495;SDS011;3789;47.064;15.482;2023-03-03T17:45:51;22.57;;;17.00;;
7495;SDS011;3789;47.064;15.482;2023-03-03T17:51:54;17.70;;;12.53;;
7495;SDS011;3789;47.064;15.482;2023-03-03T17:57:57;22.07;;;15.27;;
7495;SDS011;3789;47.064;15.482;2023-03-03T18:14:34;16.73;;;13.10;;
7495;SDS011;3789;47.064;15.482;2023-03-03T18:17:20;18.20;;;14.30;;
7495;SDS011;3789;47.064;15.482;2023-03-03T18:22:55;17.40;;;12.93;;
7495;SDS011;3789;47.064;15.482;2023-03-03T18:25:23;21.83;;;15.07;;
7495;SDS011;3789;47.064;15.482;2023-03-03T18:30:31;21.17;;;15.70;;
7495;SDS011;3789;47.064;15.482;2023-03-03T18:33:15;23.80;;;18.17;;
7495;SDS011;3789;47.064;15.482;2023-03-03T18:38:53;20.03;;;16.67;;
7495;SDS011;3789;47.064;15.482;2023-03-03T18:41:24;24.47;;;16.70;;
7495;SDS011;3789;47.064;15.482;2023-03-03T18:43:58;25.03;;;19.00;;
7495;SDS011;3789;47.064;15.482;2023-03-03T18:46:48;21.53;;;16.37;;
7495;SDS011;3789;47.064;15.482;2023-03-03T18:49:17;24.03;;;16.23;;
7495;SDS011;3789;47.064;15.482;2023-03-03T18:57:36;25.00;;;17.47;;
7495;SDS011;3789;47.064;15.482;2023-03-03T19:00:15;24.30;;;18.13;;
7495;SDS011;3789;47.064;15.482;2023-03-03T19:02:55;21.93;;;17.90;;
7495;SDS011;3789;47.064;15.482;2023-03-03T19:05:26;28.00;;;19.10;;
7495;SDS011;3789;47.064;15.482;2023-03-03T19:08:17;21.10;;;14.73;;
7495;SDS011;3789;47.064;15.482;2023-03-03T19:10:57;22.17;;;16.60;;
7495;SDS011;3789;47.064;15.482;2023-03-03T19:16:00;22.47;;;15.93;;
7495;SDS011;3789;47.064;15.482;2023-03-03T19:21:23;20.77;;;16.47;;
7495;SDS011;3789;47.064;15.482;2023-03-03T19:24:00;26.87;;;17.80;;
7495;SDS011;3789;47.064;15.482;2023-03-03T19:40:51;21.27;;;16.67;;
7495;SDS011;3789;47.064;15.482;2023-03-03T19:43:42;19.50;;;16.10;;
7495;SDS011;3789;47.064;15.482;2023-03-03T19:58:24;21.17;;;15.80;;
7495;SDS011;3789;47.064;15.482;2023-03-03T20:15:09;20.67;;;16.20;;
7495;SDS011;3789;47.064;15.482;2023-03-03T20:23:02;26.13;;;19.67;;
7495;SDS011;3789;47.064;15.482;2023-03-03T20:28:36;23.40;;;18.07;;
7495;SDS011;3789;47.064;15.482;2023-03-03T20:34:13;22.57;;;18.30;;
7495;SDS011;3789;47.064;15.482;2023-03-03T20:37:56;19.83;;;16.80;;
7495;SDS011;3789;47.064;15.482;2023-03-03T20:59:30;27.93;;;20.90;;
7495;SDS011;3789;47.064;15.482;2023-03-03T21:04:47;27.07;;;18.43;;
7495;SDS011;3789;47.064;15.482;2023-03-03T21:10:38;25.63;;;18.73;;
7495;SDS011;3789;47.064;15.482;2023-03-03T21:16:43;24.47;;;18.80;;
7495;SDS011;3789;47.064;15.482;2023-03-03T21:19:10;24.13;;;19.03;;
7495;SDS011;3789;47.064;15.482;2023-03-03T21:21:39;22.57;;;16.93;;
7495;SDS011;3789;47.064;15.482;2023-03-03T21:24:10;25.63;;;18.10;;